Time;durP1;ratioP1;P1;durP2;ratioP2;P2;SDS_P1;SDS_P2;PMS_P1;PMS_P2;Temp;Humidity;BMP_temperature;BMP_pressure;BME280_temperature;BME280_humidity;BME280_pressure;Samples;Min_cycle;Max_cycle;Signal;HPM_P1;HPM_P2
2022/06/06 00:00:14;;;;;;;27.38;25.00;;;;;;;14.18;100.00;99139.13;2091497;28;20274;-71
2022/06/06 00:01:16;;;;;;;27.60;25.02;;;;;;;14.18;100.00;99138.31;2091229;28;20203;-71
2022/06/06 00:02:20;;;;;;;27.40;25.00;;;;;;;14.13;100.00;99132.00;2090551;28;20283;-72
2022/06/06 00:03:23;;;;;;;26.88;24.63;;;;;;;14.13;100.00;99136.56;2090679;28;20191;-71
2022/06/06 00:04:27;;;;;;;26.98;24.58;;;;;;;14.11;100.00;99134.22;2091224;28;20191;-71
2022/06/06 00:05:27;;;;;;;27.58;25.08;;;;;;;14.08;100.00;99134.88;2090491;28;20201;-71
2022/06/06 00:06:29;;;;;;;27.80;25.33;;;;;;;14.08;100.00;99137.53;2090357;28;20246;-72
2022/06/06 00:07:29;;;;;;;27.23;24.90;;;;;;;14.07;100.00;99144.03;2098822;28;20206;-71
2022/06/06 00:08:31;;;;;;;27.43;24.67;;;;;;;14.05;100.00;99140.84;2098948;28;20265;-72
2022/06/06 00:09:34;;;;;;;27.10;24.50;;;;;;;14.01;100.00;99144.50;2090546;28;20693;-71
2022/06/06 00:10:37;;;;;;;27.15;24.83;;;;;;;13.97;100.00;99138.94;2090822;28;20249;-72
2022/06/06 00:11:40;;;;;;;25.95;23.75;;;;;;;13.96;100.00;99137.38;2091152;28;20194;-71
2022/06/06 00:12:42;;;;;;;27.52;25.08;;;;;;;13.94;100.00;99147.63;2090844;28;20214;-71
2022/06/06 00:13:44;;;;;;;28.05;25.50;;;;;;;13.94;100.00;99149.53;2090815;28;20604;-71
2022/06/06 00:14:46;;;;;;;28.00;25.60;;;;;;;13.93;100.00;99147.97;2091338;28;20654;-71
2022/06/06 00:15:46;;;;;;;27.48;25.08;;;;;;;13.89;100.00;99136.28;2090369;28;20187;-71
2022/06/06 00:16:49;;;;;;;28.03;25.53;;;;;;;13.84;100.00;99140.69;2082142;28;20206;-72
2022/06/06 00:17:50;;;;;;;26.90;24.17;;;;;;;13.79;100.00;99150.78;2090514;28;20699;-72
2022/06/06 00:18:52;;;;;;;27.02;24.63;;;;;;;13.80;100.00;99149.66;2091166;28;20241;-71
2022/06/06 00:19:53;;;;;;;27.50;25.05;;;;;;;13.78;100.00;99149.22;2091133;28;20657;-71
2022/06/06 00:20:54;;;;;;;26.93;24.43;;;;;;;13.76;100.00;99138.00;2090677;28;20533;-71
2022/06/06 00:21:55;;;;;;;26.80;24.40;;;;;;;13.76;100.00;99138.00;2091119;28;20221;-71
2022/06/06 00:22:59;;;;;;;27.27;24.70;;;;;;;13.78;100.00;99141.16;2091109;28;20673;-71
2022/06/06 00:24:03;;;;;;;26.77;24.33;;;;;;;13.73;100.00;99136.75;2090362;28;20240;-71
2022/06/06 00:25:07;;;;;;;27.20;24.73;;;;;;;13.73;100.00;99135.97;2082518;28;20195;-71
2022/06/06 00:26:10;;;;;;;28.08;25.42;;;;;;;13.73;100.00;99139.44;2090494;28;20214;-71
2022/06/06 00:27:13;;;;;;;27.88;25.50;;;;;;;13.69;100.00;99132.31;2091056;28;20205;-71
2022/06/06 00:28:14;;;;;;;27.45;24.92;;;;;;;13.69;100.00;99143.84;2090340;28;20195;-72
2022/06/06 00:29:17;;;;;;;28.63;25.70;;;;;;;13.66;100.00;99139.09;2090273;28;20194;-71
2022/06/06 00:30:20;;;;;;;27.52;25.17;;;;;;;13.64;100.00;99143.19;2090363;28;20222;-71
2022/06/06 00:35:23;;;;;;;27.58;25.27;;;;;;;13.54;100.00;99146.97;2090584;28;20219;-71
2022/06/06 00:36:24;;;;;;;27.75;25.05;;;;;;;13.50;100.00;99144.13;2089971;28;20653;-71
2022/06/06 00:37:29;;;;;;;27.67;25.10;;;;;;;13.50;100.00;99141.44;2090639;28;20199;-72
2022/06/06 00:38:31;;;;;;;27.25;24.75;;;;;;;13.49;100.00;99147.13;2082631;28;20290;-71
2022/06/06 00:39:32;;;;;;;27.57;25.20;;;;;;;13.48;100.00;99149.03;2090636;28;20308;-71
2022/06/06 00:40:34;;;;;;;28.48;25.80;;;;;;;13.46;100.00;99142.38;2090980;28;20623;-71
2022/06/06 00:41:37;;;;;;;29.25;26.45;;;;;;;13.43;100.00;99140.31;2091042;28;20191;-71
2022/06/06 00:42:41;;;;;;;28.20;25.70;;;;;;;13.42;100.00;99144.13;2090930;28;20191;-71
2022/06/06 00:43:43;;;;;;;28.25;25.73;;;;;;;13.37;100.00;99128.16;2090993;28;20194;-71
2022/06/06 00:44:47;;;;;;;27.23;24.83;;;;;;;13.37;100.00;99136.22;2090897;28;20190;-71
2022/06/06 00:45:50;;;;;;;28.55;25.92;;;;;;;13.35;100.00;99138.41;2090853;28;20662;-71
2022/06/06 00:46:54;;;;;;;28.73;25.90;;;;;;;13.35;100.00;99133.84;2090237;28;20707;-71
2022/06/06 00:48:03;;;;;;;28.80;26.20;;;;;;;13.35;100.00;99139.19;2090359;28;20576;-71
2022/06/06 00:49:05;;;;;;;28.40;25.65;;;;;;;13.34;100.00;99143.00;2090908;28;20630;-71
2022/06/06 00:50:13;;;;;;;29.48;26.88;;;;;;;13.29;100.00;99140.44;2090989;28;20191;-72
2022/06/06 00:51:17;;;;;;;27.67;25.33;;;;;;;13.29;100.00;99140.44;2089978;28;20219;-71
2022/06/06 00:52:23;;;;;;;27.92;25.15;;;;;;;13.23;100.00;99131.00;2090457;28;20626;-71
2022/06/06 00:53:30;;;;;;;28.25;25.75;;;;;;;13.21;100.00;99141.22;2090926;28;20179;-71
2022/06/06 00:54:31;;;;;;;29.15;26.15;;;;;;;13.12;100.00;99140.34;2091087;28;20650;-71
2022/06/06 00:55:37;;;;;;;28.50;25.80;;;;;;;13.18;100.00;99136.44;2090803;28;20195;-71
2022/06/06 00:56:42;;;;;;;28.40;25.98;;;;;;;13.19;100.00;99135.34;2090215;28;20218;-71
2022/06/06 00:57:50;;;;;;;28.48;25.77;;;;;;;13.17;100.00;99130.31;2090380;28;20229;-71
2022/06/06 00:58:55;;;;;;;27.52;25.10;;;;;;;13.18;100.00;99131.88;2091028;28;20262;-71
2022/06/06 00:59:56;;;;;;;29.65;26.83;;;;;;;13.15;100.00;99129.84;2090901;28;20187;-71
2022/06/06 01:00:58;;;;;;;28.43;25.73;;;;;;;13.14;100.00;99130.94;2090989;28;20629;-71
2022/06/06 01:02:00;;;;;;;28.17;25.67;;;;;;;13.17;100.00;99132.19;2090907;28;20487;-71
2022/06/06 01:03:04;;;;;;;29.00;26.30;;;;;;;13.19;100.00;99132.66;2090073;28;20618;-71
2022/06/06 01:04:05;;;;;;;29.75;26.77;;;;;;;13.25;100.00;99131.47;2089789;28;20195;-72
2022/06/06 01:05:08;;;;;;;27.90;25.40;;;;;;;13.29;100.00;99140.44;2082180;28;20195;-71
2022/06/06 01:06:14;;;;;;;28.77;26.25;;;;;;;13.27;100.00;99148.78;2081337;28;20645;-71
2022/06/06 01:07:15;;;;;;;28.27;25.67;;;;;;;13.26;100.00;99149.13;2090227;28;20237;-71
2022/06/06 01:08:19;;;;;;;28.47;25.77;;;;;;;13.21;100.00;99149.28;2090757;28;20210;-71
2022/06/06 01:09:21;;;;;;;29.67;26.67;;;;;;;13.20;100.00;99139.63;2090939;28;20922;-72
2022/06/06 01:10:23;;;;;;;29.95;27.23;;;;;;;13.21;100.00;99142.03;2090675;28;20191;-71
2022/06/06 01:11:23;;;;;;;28.95;26.23;;;;;;;13.19;100.00;99157.59;2089949;28;20309;-71
2022/06/06 01:12:25;;;;;;;29.90;27.07;;;;;;;13.21;100.00;99149.28;2090093;28;20191;-71
2022/06/06 01:13:31;;;;;;;28.95;26.40;;;;;;;13.19;100.00;99146.06;2090804;28;20222;-71
2022/06/06 01:14:35;;;;;;;28.60;26.08;;;;;;;13.19;100.00;99146.88;2090058;28;20326;-71
2022/06/06 01:15:44;;;;;;;29.80;27.00;;;;;;;13.20;100.00;99153.81;2082044;28;20261;-72
2022/06/06 01:16:51;;;;;;;30.95;27.70;;;;;;;13.18;100.00;99144.50;2083046;28;20195;-71
2022/06/06 01:17:57;;;;;;;28.90;26.33;;;;;;;13.04;100.00;99146.50;2090340;28;20175;-72
2022/06/06 01:19:44;;;;;;;29.42;26.40;;;;;;;13.13;100.00;99142.75;2090910;28;20179;-71
2022/06/06 01:21:08;;;;;;;29.27;26.60;;;;;;;13.12;100.00;99143.03;2081478;28;20203;-71
2022/06/06 01:22:25;;;;;;;28.95;26.15;;;;;;;13.10;100.00;99145.25;2090538;28;20594;-71
2022/06/06 01:23:47;;;;;;;30.40;27.50;;;;;;;13.08;100.00;99150.91;2089975;28;20197;-71
2022/06/06 01:25:13;;;;;;;29.70;26.98;;;;;;;13.06;100.00;99146.97;2090483;28;20175;-71
2022/06/06 01:26:32;;;;;;;29.25;26.45;;;;;;;13.00;100.00;99149.78;2088380;28;20281;-72
2022/06/06 01:27:58;;;;;;;30.33;27.52;;;;;;;12.93;100.00;99148.66;2090851;28;20171;-71
2022/06/06 01:29:02;;;;;;;29.48;26.88;;;;;;;12.77;100.00;99158.19;2088072;28;20340;-71
2022/06/06 01:30:07;;;;;;;29.55;26.83;;;;;;;12.72;100.00;99143.84;2089784;28;20311;-71
2022/06/06 01:31:12;;;;;;;30.15;27.30;;;;;;;12.87;100.00;99153.38;2089882;28;20186;-71
2022/06/06 01:32:17;;;;;;;29.65;27.08;;;;;;;12.88;100.00;99152.25;2089995;28;20705;-71
2022/06/06 01:33:20;;;;;;;29.33;26.73;;;;;;;12.90;100.00;99155.41;2090715;28;20645;-71
2022/06/06 01:34:25;;;;;;;30.45;27.65;;;;;;;12.92;100.00;99152.44;2089635;28;20244;-71
2022/06/06 01:35:29;;;;;;;30.92;27.67;;;;;;;12.87;100.00;99144.53;2090251;28;20570;-71
2022/06/06 01:36:32;;;;;;;30.30;27.70;;;;;;;12.91;100.00;99148.97;2081498;28;20215;-72
2022/06/06 01:37:35;;;;;;;29.70;26.98;;;;;;;12.88;100.00;99138.88;2081840;28;20202;-71
2022/06/06 01:38:38;;;;;;;30.23;27.42;;;;;;;12.84;100.00;99143.25;2082014;28;20199;-72
2022/06/06 01:39:39;;;;;;;29.70;27.02;;;;;;;12.82;100.00;99144.66;2089856;28;20191;-71
2022/06/06 01:40:51;;;;;;;30.13;27.33;;;;;;;12.78;100.00;99152.53;2089778;28;20226;-72
2022/06/06 01:42:05;;;;;;;30.55;27.60;;;;;;;12.78;100.00;99147.19;2090286;28;20218;-72
2022/06/06 01:43:12;;;;;;;30.50;27.70;;;;;;;12.74;100.00;99140.84;2089867;28;20179;-72
2022/06/06 01:44:20;;;;;;;30.30;27.70;;;;;;;12.74;100.00;99151.56;2090052;28;20202;-71
2022/06/06 01:45:28;;;;;;;30.58;27.58;;;;;;;12.74;100.00;99144.31;2089812;28;20649;-71
2022/06/06 01:46:31;;;;;;;31.63;28.52;;;;;;;12.73;100.00;99153.44;2089896;28;20198;-72
2022/06/06 01:47:37;;;;;;;30.70;27.83;;;;;;;12.71;100.00;99144.94;2089825;28;20244;-71
2022/06/06 01:48:40;;;;;;;31.15;28.17;;;;;;;12.71;100.00;99149.50;2090199;28;20179;-71
2022/06/06 01:49:42;;;;;;;30.30;27.60;;;;;;;12.67;100.00;99146.63;2090669;28;20274;-71
2022/06/06 01:50:44;;;;;;;31.42;28.33;;;;;;;12.65;100.00;99143.47;2090428;28;20615;-71
2022/06/06 01:51:58;;;;;;;30.48;27.80;;;;;;;12.64;100.00;99149.94;2090090;28;20226;-71
2022/06/06 01:53:01;;;;;;;31.67;28.67;;;;;;;12.62;100.00;99149.47;2089810;28;20700;-71
2022/06/06 01:54:04;;;;;;;31.70;28.58;;;;;;;12.60;100.00;99140.97;2090087;28;20186;-72
2022/06/06 01:55:05;;;;;;;31.25;28.35;;;;;;;12.59;100.00;99154.63;2090460;28;20187;-71
2022/06/06 01:56:09;;;;;;;31.25;28.38;;;;;;;12.55;100.00;99149.09;2090619;28;20676;-72
2022/06/06 01:57:13;;;;;;;31.05;28.25;;;;;;;12.54;100.00;99152.09;2089692;28;20277;-72
2022/06/06 01:58:18;;;;;;;30.17;27.42;;;;;;;12.54;100.00;99152.09;2089857;28;20191;-71
2022/06/06 01:59:20;;;;;;;30.98;28.08;;;;;;;12.50;100.00;99153.78;2089652;28;20202;-71
2022/06/06 02:00:21;;;;;;;31.60;28.70;;;;;;;12.47;100.00;99149.84;2089838;28;20272;-71
2022/06/06 02:01:22;;;;;;;31.50;28.60;;;;;;;12.45;100.00;99147.47;2090570;28;20245;-72
2022/06/06 02:02:23;;;;;;;30.20;27.50;;;;;;;12.45;100.00;99150.16;2090620;28;20191;-71
2022/06/06 02:03:26;;;;;;;29.77;27.08;;;;;;;12.37;100.00;99137.50;2090346;28;20233;-71
2022/06/06 02:04:28;;;;;;;30.60;27.80;;;;;;;12.35;100.00;99139.72;2089651;28;20190;-71
2022/06/06 02:05:30;;;;;;;32.40;29.27;;;;;;;12.37;100.00;99140.19;2089963;28;20214;-71
2022/06/06 02:06:32;;;;;;;31.25;28.40;;;;;;;12.36;100.00;99135.94;2089478;28;20222;-71
2022/06/06 02:07:33;;;;;;;31.50;28.65;;;;;;;12.32;100.00;99137.63;2089776;28;20187;-71
2022/06/06 02:08:34;;;;;;;30.00;27.45;;;;;;;12.30;100.00;99147.06;2090370;28;20197;-71
2022/06/06 02:09:37;;;;;;;31.38;28.50;;;;;;;12.29;100.00;99143.59;2090584;28;20566;-71
2022/06/06 02:10:40;;;;;;;30.77;27.90;;;;;;;12.20;100.00;99147.31;2089590;28;20199;-71
2022/06/06 02:11:40;;;;;;;31.83;28.90;;;;;;;12.19;100.00;99151.88;2089741;28;20282;-71
2022/06/06 02:12:44;;;;;;;32.27;29.27;;;;;;;12.21;100.00;99155.03;2090393;28;20202;-71
2022/06/06 02:13:45;;;;;;;30.85;28.02;;;;;;;12.22;100.00;99166.50;2090335;28;20186;-71
2022/06/06 02:14:48;;;;;;;31.52;28.55;;;;;;;12.18;100.00;99155.63;2090334;28;20240;-71
2022/06/06 02:15:52;;;;;;;33.63;30.30;;;;;;;12.18;100.00;99158.31;2090579;28;20249;-71
2022/06/06 02:16:56;;;;;;;33.75;30.55;;;;;;;12.22;100.00;99159.28;2092163;28;20194;-71
2022/06/06 02:17:57;;;;;;;31.25;28.30;;;;;;;12.24;100.00;99158.97;2091315;28;20207;-71
2022/06/06 02:18:59;;;;;;;31.87;28.87;;;;;;;12.24;100.00;99159.75;2083053;28;20191;-71
2022/06/06 02:20:04;;;;;;;31.65;28.75;;;;;;;12.24;100.00;99154.41;2091499;28;20283;-72
2022/06/06 02:21:07;;;;;;;31.95;28.33;;;;;;;12.23;100.00;99147.47;2091773;28;20582;-71
2022/06/06 02:22:08;;;;;;;31.45;28.42;;;;;;;12.22;100.00;99151.25;2091391;28;20215;-72
2022/06/06 02:23:12;;;;;;;32.00;28.90;;;;;;;12.25;100.00;99152.50;2083117;28;20249;-71
2022/06/06 02:24:13;;;;;;;31.80;28.58;;;;;;;12.20;100.00;99150.78;2091551;28;20191;-71
2022/06/06 02:25:15;;;;;;;31.53;28.70;;;;;;;12.19;100.00;99143.06;2091345;28;20230;-72
2022/06/06 02:26:18;;;;;;;31.88;28.67;;;;;;;12.13;100.00;99145.84;2091173;28;20203;-72
2022/06/06 02:27:21;;;;;;;31.75;28.65;;;;;;;12.11;100.00;99139.22;2091436;28;20195;-71
2022/06/06 02:28:23;;;;;;;31.75;28.58;;;;;;;12.04;100.00;99138.84;2091971;28;20704;-71
2022/06/06 02:29:24;;;;;;;32.63;29.48;;;;;;;11.99;100.00;99130.94;2091305;28;20233;-71
2022/06/06 02:30:30;;;;;;;31.88;28.77;;;;;;;12.04;100.00;99126.25;2091281;28;20309;-71
2022/06/06 02:31:37;;;;;;;34.72;31.08;;;;;;;12.07;100.00;99127.53;2091736;28;20194;-71
2022/06/06 02:32:38;;;;;;;31.95;28.85;;;;;;;12.07;100.00;99132.88;2091446;28;20203;-71
2022/06/06 02:33:40;;;;;;;33.40;30.03;;;;;;;12.04;100.00;99122.81;2091042;28;20198;-71
2022/06/06 02:34:41;;;;;;;31.90;28.88;;;;;;;12.04;100.00;99130.81;2091086;28;20238;-71
2022/06/06 02:35:43;;;;;;;32.28;29.23;;;;;;;12.03;100.00;99129.25;2091608;28;20187;-71
2022/06/06 02:36:43;;;;;;;34.30;30.95;;;;;;;12.02;100.00;99130.34;2091615;28;20249;-72
2022/06/06 02:37:46;;;;;;;34.97;31.57;;;;;;;12.01;100.00;99126.09;2091223;28;20206;-71
2022/06/06 02:38:49;;;;;;;34.30;30.92;;;;;;;12.04;100.00;99125.47;2091319;28;20190;-71
2022/06/06 02:39:49;;;;;;;34.17;30.77;;;;;;;12.05;100.00;99135.06;2091891;28;20191;-71
2022/06/06 02:40:51;;;;;;;35.20;31.60;;;;;;;12.02;100.00;99131.13;2091272;28;20244;-71
2022/06/06 02:41:54;;;;;;;35.50;32.08;;;;;;;11.99;100.00;99131.75;2091203;28;20194;-71
2022/06/06 02:42:56;;;;;;;35.80;32.25;;;;;;;12.01;100.00;99142.13;2090760;28;20198;-71
2022/06/06 02:43:56;;;;;;;36.58;32.88;;;;;;;12.05;100.00;99141.22;2082854;28;20321;-72
2022/06/06 02:44:58;;;;;;;37.87;33.93;;;;;;;12.04;100.00;99142.31;2091363;28;20278;-71
2022/06/06 02:46:02;;;;;;;36.80;33.10;;;;;;;12.08;100.00;99139.84;2091875;28;20195;-71
2022/06/06 02:47:04;;;;;;;36.70;33.00;;;;;;;12.11;100.00;99148.03;2091790;28;20584;-71
2022/06/06 02:48:08;;;;;;;36.60;33.08;;;;;;;12.12;100.00;99136.22;2091818;28;20657;-71
2022/06/06 02:49:09;;;;;;;36.85;33.28;;;;;;;12.20;100.00;99137.41;2099337;28;20531;-72
2022/06/06 02:50:10;;;;;;;38.15;34.17;;;;;;;12.20;100.00;99134.72;2099570;28;20217;-71
2022/06/06 02:51:12;;;;;;;36.53;32.92;;;;;;;12.19;100.00;99133.16;2091310;28;20179;-71
2022/06/06 02:52:14;;;;;;;35.85;32.15;;;;;;;12.16;100.00;99131.06;2091811;28;20179;-71
2022/06/06 02:53:16;;;;;;;35.97;32.35;;;;;;;12.15;100.00;99126.81;2091965;28;20604;-71
2022/06/06 02:54:18;;;;;;;35.10;31.70;;;;;;;12.17;100.00;99127.31;2091846;28;20225;-71
2022/06/06 02:55:22;;;;;;;37.05;32.70;;;;;;;12.14;100.00;99131.38;2091792;28;20183;-71
2022/06/06 02:56:24;;;;;;;37.17;33.38;;;;;;;12.19;100.00;99138.50;2091983;28;20191;-71
2022/06/06 02:57:24;;;;;;;37.83;32.75;;;;;;;12.22;100.00;99137.88;2091739;28;20587;-71
2022/06/06 02:58:27;;;;;;;39.50;35.40;;;;;;;12.21;100.00;99138.19;2091761;28;20179;-71
2022/06/06 02:59:28;;;;;;;38.80;34.60;;;;;;;12.23;100.00;99134.09;2091865;28;20187;-71
2022/06/06 03:00:33;;;;;;;37.33;33.17;;;;;;;12.24;100.00;99141.03;2091438;28;20265;-71
2022/06/06 03:01:36;;;;;;;37.95;33.92;;;;;;;12.25;100.00;99137.28;2091314;28;20218;-71
2022/06/06 03:02:40;;;;;;;37.75;33.70;;;;;;;12.27;100.00;99143.13;2091022;28;20195;-71
2022/06/06 03:03:42;;;;;;;37.17;33.28;;;;;;;12.34;100.00;99148.03;2090979;28;20658;-71
2022/06/06 03:04:42;;;;;;;37.08;33.20;;;;;;;12.37;100.00;99147.44;2090998;28;20237;-71
2022/06/06 03:05:54;;;;;;;42.27;33.87;;;;;;;12.34;100.00;99148.84;2091126;28;20191;-71
2022/06/06 03:07:00;;;;;;;37.08;33.13;;;;;;;12.37;100.00;99150.09;2091505;28;20219;-72
2022/06/06 03:08:10;;;;;;;36.90;33.10;;;;;;;12.33;100.00;99152.56;2091918;28;20182;-71
2022/06/06 03:09:29;;;;;;;37.38;33.50;;;;;;;12.44;100.00;99158.50;2090982;28;20210;-71
2022/06/06 03:10:38;;;;;;;37.80;33.80;;;;;;;12.45;100.00;99144.81;2085252;28;20183;-72
2022/06/06 03:11:54;;;;;;;38.22;34.05;;;;;;;12.48;100.00;99145.28;2091298;28;20187;-71
2022/06/06 03:13:05;;;;;;;37.00;33.25;;;;;;;12.52;100.00;99143.59;2090996;28;20187;-71
2022/06/06 03:14:20;;;;;;;38.15;34.28;;;;;;;12.49;100.00;99133.47;2091190;28;20587;-71
2022/06/06 03:15:39;;;;;;;38.20;34.42;;;;;;;12.57;100.00;99138.09;2091743;28;20199;-71
2022/06/06 03:21:21;;;;;;;40.22;36.03;;;;;;;12.70;100.00;99140.69;2091120;28;20227;-71
2022/06/06 03:22:29;;;;;;;40.38;36.17;;;;;;;12.73;100.00;99150.78;2091812;28;20172;-72
2022/06/06 03:23:42;;;;;;;38.60;34.90;;;;;;;12.74;100.00;99146.22;2091681;28;20175;-71
2022/06/06 03:24:52;;;;;;;38.88;34.95;;;;;;;12.74;100.00;99160.38;2090894;28;20260;-72
2022/06/06 03:26:01;;;;;;;44.50;37.80;;;;;;;12.77;100.00;99159.00;2083939;28;20195;-71
2022/06/06 03:27:12;;;;;;;42.08;37.67;;;;;;;12.82;100.00;99168.75;2091181;28;20278;-71
2022/06/06 03:28:20;;;;;;;43.20;38.53;;;;;;;12.82;100.00;99174.91;2091678;28;20186;-71
2022/06/06 03:29:30;;;;;;;44.05;39.25;;;;;;;12.80;100.00;99174.44;2091753;28;20274;-71
2022/06/06 03:30:39;;;;;;;43.65;38.50;;;;;;;12.87;100.00;99179.34;2090857;28;20638;-71
2022/06/06 03:31:50;;;;;;;47.63;38.63;;;;;;;12.85;100.00;99182.31;2091151;28;20171;-71
2022/06/06 03:33:07;;;;;;;42.67;37.97;;;;;;;12.92;100.00;99180.00;2091531;28;20258;-71
2022/06/06 03:34:22;;;;;;;41.65;37.20;;;;;;;12.96;100.00;99169.47;2090572;28;20317;-71
2022/06/06 03:35:29;;;;;;;42.67;36.88;;;;;;;13.00;100.00;99176.56;2091050;28;20194;-71
2022/06/06 03:36:34;;;;;;;38.40;34.40;;;;;;;13.09;100.00;99179.28;2090647;28;20214;-71
2022/06/06 03:37:40;;;;;;;37.20;33.47;;;;;;;13.08;100.00;99175.03;2090750;28;20210;-71
2022/06/06 03:38:46;;;;;;;37.35;33.63;;;;;;;13.12;100.00;99178.69;2091074;28;20523;-71
2022/06/06 03:39:52;;;;;;;38.95;35.05;;;;;;;13.14;100.00;99175.69;2091659;28;20232;-71
2022/06/06 03:41:01;;;;;;;39.88;35.53;;;;;;;13.14;100.00;99171.13;2090777;28;20637;-71
2022/06/06 03:42:10;;;;;;;38.83;35.00;;;;;;;13.20;100.00;99169.09;2091056;28;20596;-71
2022/06/06 03:43:19;;;;;;;36.83;33.20;;;;;;;13.13;100.00;99163.41;2090750;28;20183;-71
2022/06/06 03:44:31;;;;;;;36.17;32.45;;;;;;;13.13;100.00;99166.88;2090892;28;20262;-71
2022/06/06 03:45:38;;;;;;;35.10;31.40;;;;;;;13.10;100.00;99164.78;2090748;28;20660;-72
2022/06/06 03:46:48;;;;;;;35.65;32.00;;;;;;;13.12;100.00;99167.97;2091075;28;20229;-71
2022/06/06 03:47:59;;;;;;;36.97;33.05;;;;;;;13.16;100.00;99168.13;2091539;28;20195;-71
2022/06/06 03:49:10;;;;;;;35.35;31.85;;;;;;;13.18;100.00;99155.19;2091411;28;20262;-71
2022/06/06 03:50:19;;;;;;;34.83;31.42;;;;;;;13.23;100.00;99166.59;2091568;28;20244;-71
2022/06/06 03:51:36;;;;;;;34.83;31.27;;;;;;;13.26;100.00;99170.56;2091061;28;20575;-71
2022/06/06 03:52:44;;;;;;;35.90;31.75;;;;;;;13.23;100.00;99174.66;2091482;28;20210;-72
2022/06/06 03:53:52;;;;;;;33.85;30.35;;;;;;;13.28;100.00;99174.50;2090682;28;20207;-71
2022/06/06 03:55:02;;;;;;;34.35;31.10;;;;;;;13.30;100.00;99166.16;2091034;28;20599;-71
2022/06/06 03:56:11;;;;;;;35.05;31.52;;;;;;;13.33;100.00;99159.38;2091449;28;20254;-71
2022/06/06 03:57:17;;;;;;;34.13;30.70;;;;;;;13.36;100.00;99159.53;2091536;28;20520;-71
2022/06/06 03:58:18;;;;;;;33.60;30.27;;;;;;;13.36;100.00;99148.81;2091285;28;20183;-71
2022/06/06 03:59:23;;;;;;;33.17;29.77;;;;;;;13.40;100.00;99155.16;2091399;28;20603;-71
2022/06/06 04:00:25;;;;;;;32.00;28.95;;;;;;;13.45;100.00;99146.16;2091339;28;20191;-71
2022/06/06 04:01:27;;;;;;;31.70;28.70;;;;;;;13.50;100.00;99141.44;2091463;28;20202;-71
2022/06/06 04:02:33;;;;;;;32.75;29.55;;;;;;;13.53;100.00;99140.81;2091233;28;20214;-71
2022/06/06 04:03:34;;;;;;;32.70;29.50;;;;;;;13.60;100.00;99139.56;2090641;28;20203;-72
2022/06/06 04:04:37;;;;;;;32.90;29.57;;;;;;;13.69;100.00;99137.69;2090656;28;20219;-71
2022/06/06 04:05:40;;;;;;;34.35;30.67;;;;;;;13.80;100.00;99145.09;2091250;28;20919;-71
2022/06/06 04:06:40;;;;;;;34.40;31.20;;;;;;;13.87;100.00;99147.31;2090910;28;20685;-71
2022/06/06 04:07:42;;;;;;;33.73;30.40;;;;;;;13.85;100.00;99153.00;2090425;28;20595;-71
2022/06/06 04:08:43;;;;;;;32.58;29.48;;;;;;;13.86;100.00;99161.84;2082374;28;20242;-71
2022/06/06 04:09:48;;;;;;;33.53;30.50;;;;;;;13.85;100.00;99161.03;2090620;28;20558;-71
2022/06/06 04:10:54;;;;;;;33.03;29.73;;;;;;;13.88;100.00;99156.16;2091561;28;20187;-71
2022/06/06 04:12:03;;;;;;;33.35;30.00;;;;;;;13.89;100.00;99157.72;2091462;28;20179;-71
2022/06/06 04:13:25;;;;;;;32.75;29.55;;;;;;;13.88;100.00;99145.41;2090520;28;20191;-71
2022/06/06 04:14:36;;;;;;;37.30;30.73;;;;;;;13.92;100.00;99147.19;2091029;28;20179;-71
2022/06/06 04:15:45;;;;;;;34.05;30.75;;;;;;;13.94;100.00;99139.59;2091415;28;20178;-72
2022/06/06 04:16:54;;;;;;;32.80;29.65;;;;;;;13.99;100.00;99139.44;2091289;28;20176;-71
2022/06/06 04:18:10;;;;;;;33.78;30.30;;;;;;;14.09;100.00;99141.81;2091163;28;20262;-71
2022/06/06 04:19:17;;;;;;;33.40;30.00;;;;;;;14.17;100.00;99142.13;2090713;28;20238;-71
2022/06/06 04:20:24;;;;;;;31.73;28.52;;;;;;;14.20;100.00;99149.53;2090775;28;20191;-72
2022/06/06 04:21:32;;;;;;;33.75;30.20;;;;;;;14.23;100.00;99154.25;2090701;28;20214;-72
2022/06/06 04:22:43;;;;;;;32.65;29.55;;;;;;;14.34;100.00;99163.56;2091223;28;20178;-71
2022/06/06 04:24:09;;;;;;;32.90;29.67;;;;;;;14.40;100.00;99156.91;2091338;28;20191;-72
2022/06/06 04:25:19;;;;;;;32.53;29.45;;;;;;;14.48;100.00;99152.66;2091213;28;20191;-71
2022/06/06 04:26:30;;;;;;;32.65;29.45;;;;;;;14.47;100.00;99141.13;2091188;28;20175;-72
2022/06/06 04:27:39;;;;;;;32.90;29.45;;;;;;;14.51;100.00;99142.09;2090269;28;20629;-71
2022/06/06 04:28:49;;;;;;;33.65;30.48;;;;;;;14.51;100.00;99136.72;2090593;28;20225;-71
2022/06/06 04:29:59;;;;;;;33.88;30.30;;;;;;;14.51;100.00;99142.09;2090506;28;20249;-72
2022/06/06 04:31:09;;;;;;;33.28;30.08;;;;;;;14.58;100.00;99146.94;2091176;28;20570;-71
2022/06/06 04:32:15;;;;;;;32.97;29.75;;;;;;;14.57;100.00;99148.84;2091266;28;20179;-72
2022/06/06 04:33:22;;;;;;;33.78;30.33;;;;;;;14.62;100.00;99143.31;2091091;28;20175;-71
2022/06/06 04:34:30;;;;;;;32.58;29.45;;;;;;;14.68;100.00;99141.22;2090199;28;20234;-71
2022/06/06 04:35:36;;;;;;;33.95;30.40;;;;;;;14.73;100.00;99145.66;2090639;28;20199;-71
2022/06/06 04:36:41;;;;;;;32.92;29.40;;;;;;;14.82;100.00;99135.66;2090002;28;20697;-71
2022/06/06 04:37:48;;;;;;;33.17;29.95;;;;;;;14.83;100.00;99146.09;2090617;28;20178;-71
2022/06/06 04:38:52;;;;;;;32.25;29.13;;;;;;;14.92;100.00;99146.84;2090701;28;20178;-71
2022/06/06 04:39:59;;;;;;;32.17;29.08;;;;;;;14.97;100.00;99146.66;2090983;28;20184;-72
2022/06/06 04:41:07;;;;;;;31.33;28.42;;;;;;;15.00;100.00;99145.22;2091068;28;20186;-71
2022/06/06 04:42:11;;;;;;;30.02;27.40;;;;;;;15.07;100.00;99145.53;2090288;28;20658;-71
2022/06/06 04:43:18;;;;;;;31.63;28.42;;;;;;;15.07;100.00;99147.41;2090369;28;20190;-72
2022/06/06 04:44:25;;;;;;;31.52;28.67;;;;;;;15.07;100.00;99140.16;2090537;28;20213;-72
2022/06/06 04:45:31;;;;;;;32.47;28.13;;;;;;;15.09;100.00;99137.13;2082797;28;20196;-71
2022/06/06 04:46:37;;;;;;;30.80;28.13;;;;;;;15.13;100.00;99141.56;2090361;28;20179;-71
2022/06/06 04:47:43;;;;;;;30.85;28.00;;;;;;;15.19;100.00;99142.13;2091151;28;20445;-71
2022/06/06 04:48:46;;;;;;;29.30;26.70;;;;;;;15.31;100.00;99144.94;2090231;28;20203;-71
2022/06/06 04:49:48;;;;;;;31.10;27.75;;;;;;;15.35;100.00;99145.06;2082444;28;20435;-71
2022/06/06 04:50:50;;;;;;;29.47;26.73;;;;;;;15.43;100.00;99144.22;2090357;28;20669;-71
2022/06/06 04:51:52;;;;;;;31.83;28.75;;;;;;;15.47;100.00;99145.16;2089796;28;20470;-71
2022/06/06 04:52:55;;;;;;;30.17;27.43;;;;;;;15.51;100.00;99140.69;2090503;28;20271;-71
2022/06/06 04:53:57;;;;;;;30.07;27.17;;;;;;;15.58;100.00;99135.59;2091040;28;20520;-72
2022/06/06 04:54:59;;;;;;;30.40;27.60;;;;;;;15.60;100.00;99136.03;2091027;28;20425;-72
2022/06/06 04:56:01;;;;;;;30.80;27.93;;;;;;;15.66;100.00;99145.53;2090850;28;20187;-71
2022/06/06 04:57:03;;;;;;;32.93;27.47;;;;;;;15.70;100.00;99142.97;2090791;28;20433;-71
2022/06/06 04:58:06;;;;;;;30.73;27.83;;;;;;;15.74;100.00;99147.38;2090143;28;20488;-71
2022/06/06 04:59:11;;;;;;;29.57;26.97;;;;;;;15.76;100.00;99142.44;2090257;28;20760;-71
2022/06/06 05:00:14;;;;;;;28.15;25.83;;;;;;;15.85;100.00;99144.28;2090779;28;20434;-72
2022/06/06 05:01:17;;;;;;;30.50;27.60;;;;;;;15.87;100.00;99133.97;2090053;28;20198;-71
2022/06/06 05:02:21;;;;;;;30.57;27.33;;;;;;;15.89;100.00;99145.19;2082515;28;20457;-71
2022/06/06 05:03:22;;;;;;;29.77;26.67;;;;;;;15.95;100.00;99138.50;2090004;28;20446;-72
2022/06/06 05:04:25;;;;;;;29.60;26.60;;;;;;;15.98;100.00;99148.59;2090180;28;20516;-76
2022/06/06 05:05:31;;;;;;;30.50;26.77;;;;;;;16.04;100.00;99136.53;2090052;28;20241;-71